ピアルコ国際空港(ポートオブスペイン)の過去48時間の天気

ピアルコ国際空港(ポートオブスペイン) (Piarco International Airport, Trinidad)

現在時刻: 9/22 17:26 AST (9/22 21:26 UTC) 以下の時間は現地時間です。

過去48時間のMETAR気象情報
時間 風向 風速(m/s) 視程 気温(℃) 湿度(%) 気圧(hPa) 天気現象
22 17:00 静穏 0 10km以上 24 94 1011 弱い雨
22 16:00 東北東 3 10km以上 24 94 1011
TTPP 222100Z 00000KT 9999 -RA FEW008 24/23 Q1011 NOSIG
TTPP 222000Z 07005KT 9999 FEW008 24/23 Q1011 NOSIG